EGPB Airport Information

Runway Information
Runway 06H Length 1804 ft width 148 ft
Elevation 8 ft Threshold 0 ft Heading 53
Runway 24H Length 1804 ft Width 148 ft
Elevation 19 ft Threshold 0 ft Heading 233
Runway 09 Length 3871 ft width 151 ft
Elevation 20 ft Threshold 23 ft Heading 84
Runway 27 Length 3871 ft Width 151 ft
Elevation 15 ft Threshold 105 ft Heading 264
Runway 15 Length 4678 ft width 151 ft
Elevation 7 ft Threshold 614 ft Heading 144
Runway 33 Length 4678 ft Width 151 ft
Elevation 8 ft Threshold 614 ft Heading 324
Airport Frequencies
Type APP Name RADAR Frequency 131.3 MHZ
Type ATIS Name ATIS Frequency 125.85 MHZ
Type TWR Name TWR Frequency 118.25 MHZ
Airport Navaids
Type NDB Name Sumburgh Frequency 351 KHZ
Type VOR-DME Name Sumburgh Frequency 117350 KHZ
Airport Weather Information & NOTAM
ADDS - METARS form results

(1604 UTC 29 November 2021)
Data provider http://aviationweather.gov/metar/data/
 
METAR text: EGPB 291550Z 32026KT 8000 -RADZ FEW004 BKN011 08/06 Q0994 RERA TEMPO BKN016
Conditions at: EGPB (SUMBURGH (CAPE) , GB) observed 1550 UTC 29 November 2021
Temperature: 8.0°C (46°F)
Dewpoint: 6.0°C (43°F) [RH = 87%]
Pressure (altimeter): 29.35 inches Hg (994.0 mb)
Winds: from the NW (320 degrees) at 30 MPH (26 knots; 13.4 m/s)
Visibility: 5 miles ( 8 km)
Ceiling: 1100 feet AGL
Clouds: few clouds at 400 feet AGL
broken clouds at 1100 feet AGL
Weather: -RA -DZ  (light rain, light drizzle)

METAR text: EGPB 291520Z 32022G32KT 4000 -RADZ SCT004 BKN009 08/06 Q0994 RERA TEMPO BKN016
Conditions at: EGPB (SUMBURGH (CAPE) , GB) observed 1520 UTC 29 November 2021
Temperature: 8.0°C (46°F)
Dewpoint: 6.0°C (43°F) [RH = 87%]
Pressure (altimeter): 29.35 inches Hg (994.0 mb)
Winds: from the NW (320 degrees) at 25 MPH (22 knots; 11.3 m/s)
gusting to 37 MPH (32 knots; 16.5 m/s)
Visibility: 2.49 miles (4.01 km)
Ceiling: 900 feet AGL
Clouds: scattered clouds at 400 feet AGL
broken clouds at 900 feet AGL
Weather: -RA -DZ  (light rain, light drizzle)

Forecast for: AMD
Text: TAF AMD EGPB 291549Z 2915/2924 33019KT 9999 SCT010 BKN020
Forecast period: 1500 UTC 29 November 2021 to 0000 UTC 30 November 2021
Forecast type: FROM: standard forecast or significant change
Winds: from the NNW (330 degrees) at 22 MPH (19 knots; 9.8 m/s)
Visibility: 6 or more miles (10+ km)
Ceiling: 2000 feet AGL
Clouds: scattered clouds at 1000 feet AGL
broken clouds at 2000 feet AGL
Weather: no significant weather forecast for this period
Text: TEMPO 2915/2924 34025G35KT 4000 RADZ BKN009
Forecast period: 1500 UTC 29 November 2021 to 0000 UTC 30 November 2021
Forecast type: TEMPORARY: The following changes expected for less than half the time period
Winds: from the NNW (340 degrees) at 29 MPH (25 knots; 12.9 m/s)
gusting to 40 MPH (35 knots; 18.0 m/s)
Visibility: 2.49 miles (4.01 km)
Ceiling: 900 feet AGL
Clouds: broken clouds at 900 feet AGL
Weather: RA DZ  (moderate rain, moderate drizzle)